sensor_id;sensor_type;location;lat;lon;timestamp;P1;durP1;ratioP1;P2;durP2;ratioP2
37831;SDS011;23671;38.090;-122.570;2022-12-18T00:01:18;2.22;;;1.50;;
37831;SDS011;23671;38.090;-122.570;2022-12-18T00:03:51;1.27;;;1.17;;
37831;SDS011;23671;38.090;-122.570;2022-12-18T00:06:21;1.93;;;1.37;;
37831;SDS011;23671;38.090;-122.570;2022-12-18T00:08:49;2.22;;;1.20;;
37831;SDS011;23671;38.090;-122.570;2022-12-18T00:11:18;2.33;;;1.38;;
37831;SDS011;23671;38.090;-122.570;2022-12-18T00:13:47;1.75;;;1.30;;
37831;SDS011;23671;38.090;-122.570;2022-12-18T00:16:15;1.63;;;1.20;;
37831;SDS011;23671;38.090;-122.570;2022-12-18T00:18:48;2.42;;;1.75;;
37831;SDS011;23671;38.090;-122.570;2022-12-18T00:21:16;2.00;;;1.25;;
37831;SDS011;23671;38.090;-122.570;2022-12-18T00:23:43;1.67;;;1.40;;
37831;SDS011;23671;38.090;-122.570;2022-12-18T00:26:19;1.02;;;1.00;;
37831;SDS011;23671;38.090;-122.570;2022-12-18T00:28:50;1.80;;;1.43;;
37831;SDS011;23671;38.090;-122.570;2022-12-18T00:31:19;2.40;;;1.20;;
37831;SDS011;23671;38.090;-122.570;2022-12-18T00:33:48;2.15;;;1.40;;
37831;SDS011;23671;38.090;-122.570;2022-12-18T00:36:16;3.38;;;1.20;;
37831;SDS011;23671;38.090;-122.570;2022-12-18T00:38:48;2.95;;;1.63;;
37831;SDS011;23671;38.090;-122.570;2022-12-18T00:41:16;2.03;;;1.60;;
37831;SDS011;23671;38.090;-122.570;2022-12-18T00:44:04;4.00;;;1.58;;
37831;SDS011;23671;38.090;-122.570;2022-12-18T00:46:32;2.57;;;1.30;;
37831;SDS011;23671;38.090;-122.570;2022-12-18T00:48:59;2.03;;;1.35;;
37831;SDS011;23671;38.090;-122.570;2022-12-18T00:51:26;2.42;;;1.63;;
37831;SDS011;23671;38.090;-122.570;2022-12-18T00:53:53;3.70;;;1.85;;
37831;SDS011;23671;38.090;-122.570;2022-12-18T00:56:21;4.43;;;1.50;;
37831;SDS011;23671;38.090;-122.570;2022-12-18T00:58:48;4.03;;;1.58;;
37831;SDS011;23671;38.090;-122.570;2022-12-18T01:01:16;2.75;;;1.30;;
37831;SDS011;23671;38.090;-122.570;2022-12-18T01:03:43;4.38;;;1.42;;
37831;SDS011;23671;38.090;-122.570;2022-12-18T01:06:12;3.63;;;2.03;;
37831;SDS011;23671;38.090;-122.570;2022-12-18T01:08:40;3.28;;;1.30;;
37831;SDS011;23671;38.090;-122.570;2022-12-18T01:11:08;2.78;;;1.48;;
37831;SDS011;23671;38.090;-122.570;2022-12-18T01:16:05;3.40;;;1.33;;
37831;SDS011;23671;38.090;-122.570;2022-12-18T01:18:32;2.22;;;1.63;;
37831;SDS011;23671;38.090;-122.570;2022-12-18T01:20:59;2.65;;;1.58;;
37831;SDS011;23671;38.090;-122.570;2022-12-18T01:23:30;2.78;;;1.48;;
37831;SDS011;23671;38.090;-122.570;2022-12-18T01:25:57;2.55;;;1.42;;
37831;SDS011;23671;38.090;-122.570;2022-12-18T01:28:29;3.25;;;2.22;;
37831;SDS011;23671;38.090;-122.570;2022-12-18T01:30:56;2.45;;;1.63;;
37831;SDS011;23671;38.090;-122.570;2022-12-18T01:33:23;2.00;;;1.40;;
37831;SDS011;23671;38.090;-122.570;2022-12-18T01:35:50;2.95;;;1.92;;
37831;SDS011;23671;38.090;-122.570;2022-12-18T01:38:17;2.03;;;1.45;;
37831;SDS011;23671;38.090;-122.570;2022-12-18T01:40:44;2.95;;;1.67;;
37831;SDS011;23671;38.090;-122.570;2022-12-18T01:43:11;1.98;;;1.40;;
37831;SDS011;23671;38.090;-122.570;2022-12-18T01:45:38;2.42;;;1.50;;
37831;SDS011;23671;38.090;-122.570;2022-12-18T01:48:06;1.70;;;1.40;;
37831;SDS011;23671;38.090;-122.570;2022-12-18T01:53:06;3.40;;;1.37;;
37831;SDS011;23671;38.090;-122.570;2022-12-18T01:55:51;4.97;;;1.65;;
37831;SDS011;23671;38.090;-122.570;2022-12-18T01:58:22;3.75;;;1.92;;
37831;SDS011;23671;38.090;-122.570;2022-12-18T02:01:09;4.78;;;1.52;;
37831;SDS011;23671;38.090;-122.570;2022-12-18T02:03:36;2.90;;;1.70;;
37831;SDS011;23671;38.090;-122.570;2022-12-18T02:08:40;2.72;;;1.60;;
37831;SDS011;23671;38.090;-122.570;2022-12-18T02:14:21;2.83;;;1.63;;
37831;SDS011;23671;38.090;-122.570;2022-12-18T02:28:11;3.17;;;2.17;;
37831;SDS011;23671;38.090;-122.570;2022-12-18T02:30:42;3.13;;;1.92;;
37831;SDS011;23671;38.090;-122.570;2022-12-18T02:33:13;3.95;;;1.75;;
37831;SDS011;23671;38.090;-122.570;2022-12-18T02:35:41;3.38;;;2.15;;
37831;SDS011;23671;38.090;-122.570;2022-12-18T02:38:09;3.92;;;2.33;;
37831;SDS011;23671;38.090;-122.570;2022-12-18T02:40:40;2.90;;;2.00;;
37831;SDS011;23671;38.090;-122.570;2022-12-18T02:43:09;4.15;;;2.50;;
37831;SDS011;23671;38.090;-122.570;2022-12-18T02:48:17;3.28;;;2.20;;
37831;SDS011;23671;38.090;-122.570;2022-12-18T02:50:51;3.15;;;2.10;;
37831;SDS011;23671;38.090;-122.570;2022-12-18T02:53:39;4.88;;;2.50;;
37831;SDS011;23671;38.090;-122.570;2022-12-18T02:56:21;3.92;;;2.70;;
37831;SDS011;23671;38.090;-122.570;2022-12-18T02:58:58;4.63;;;2.40;;
37831;SDS011;23671;38.090;-122.570;2022-12-18T03:04:58;3.88;;;2.45;;
37831;SDS011;23671;38.090;-122.570;2022-12-18T03:07:07;5.10;;;2.80;;
37831;SDS011;23671;38.090;-122.570;2022-12-18T03:09:42;4.72;;;2.65;;
37831;SDS011;23671;38.090;-122.570;2022-12-18T03:12:30;3.72;;;2.65;;
37831;SDS011;23671;38.090;-122.570;2022-12-18T03:15:02;5.18;;;2.95;;
37831;SDS011;23671;38.090;-122.570;2022-12-18T03:17:40;3.83;;;2.95;;
37831;SDS011;23671;38.090;-122.570;2022-12-18T03:20:12;4.93;;;3.08;;
37831;SDS011;23671;38.090;-122.570;2022-12-18T03:22:44;4.90;;;2.95;;
37831;SDS011;23671;38.090;-122.570;2022-12-18T03:25:19;6.40;;;3.03;;
37831;SDS011;23671;38.090;-122.570;2022-12-18T03:27:47;3.97;;;2.67;;
37831;SDS011;23671;38.090;-122.570;2022-12-18T03:30:18;4.53;;;2.70;;
37831;SDS011;23671;38.090;-122.570;2022-12-18T03:32:51;3.78;;;3.00;;
37831;SDS011;23671;38.090;-122.570;2022-12-18T03:35:28;4.55;;;3.00;;
37831;SDS011;23671;38.090;-122.570;2022-12-18T03:37:59;4.10;;;2.75;;
37831;SDS011;23671;38.090;-122.570;2022-12-18T03:40:45;4.60;;;2.70;;
37831;SDS011;23671;38.090;-122.570;2022-12-18T03:43:29;5.90;;;3.25;;
37831;SDS011;23671;38.090;-122.570;2022-12-18T03:49:11;4.03;;;2.88;;
37831;SDS011;23671;38.090;-122.570;2022-12-18T03:51:50;4.83;;;2.93;;
37831;SDS011;23671;38.090;-122.570;2022-12-18T03:54:20;6.40;;;3.05;;
37831;SDS011;23671;38.090;-122.570;2022-12-18T03:56:53;5.25;;;3.25;;
37831;SDS011;23671;38.090;-122.570;2022-12-18T03:59:32;4.53;;;3.33;;
37831;SDS011;23671;38.090;-122.570;2022-12-18T04:02:00;4.97;;;3.42;;
37831;SDS011;23671;38.090;-122.570;2022-12-18T04:04:30;4.53;;;3.20;;
37831;SDS011;23671;38.090;-122.570;2022-12-18T04:06:59;6.18;;;3.50;;
37831;SDS011;23671;38.090;-122.570;2022-12-18T04:09:27;4.35;;;3.10;;
37831;SDS011;23671;38.090;-122.570;2022-12-18T04:11:57;5.95;;;3.35;;
37831;SDS011;23671;38.090;-122.570;2022-12-18T04:14:24;6.07;;;3.60;;
37831;SDS011;23671;38.090;-122.570;2022-12-18T04:16:51;5.68;;;3.40;;
37831;SDS011;23671;38.090;-122.570;2022-12-18T04:19:18;4.55;;;3.28;;
37831;SDS011;23671;38.090;-122.570;2022-12-18T04:21:45;5.28;;;3.22;;
37831;SDS011;23671;38.090;-122.570;2022-12-18T04:24:12;4.65;;;3.35;;
37831;SDS011;23671;38.090;-122.570;2022-12-18T04:26:39;5.63;;;3.22;;
37831;SDS011;23671;38.090;-122.570;2022-12-18T04:29:06;4.72;;;3.22;;
37831;SDS011;23671;38.090;-122.570;2022-12-18T04:31:33;3.83;;;3.20;;
37831;SDS011;23671;38.090;-122.570;2022-12-18T04:34:00;5.60;;;3.38;;
37831;SDS011;23671;38.090;-122.570;2022-12-18T04:36:27;5.93;;;3.53;;
37831;SDS011;23671;38.090;-122.570;2022-12-18T04:38:54;6.00;;;3.10;;
37831;SDS011;23671;38.090;-122.570;2022-12-18T04:41:21;5.13;;;3.22;;
37831;SDS011;23671;38.090;-122.570;2022-12-18T04:43:48;5.47;;;3.28;;
37831;SDS011;23671;38.090;-122.570;2022-12-18T04:46:15;5.85;;;3.22;;
37831;SDS011;23671;38.090;-122.570;2022-12-18T04:48:44;5.30;;;3.33;;
37831;SDS011;23671;38.090;-122.570;2022-12-18T04:53:38;4.57;;;3.40;;
37831;SDS011;23671;38.090;-122.570;2022-12-18T04:56:12;4.43;;;2.88;;
37831;SDS011;23671;38.090;-122.570;2022-12-18T04:58:41;4.03;;;3.13;;
37831;SDS011;23671;38.090;-122.570;2022-12-18T05:01:10;5.50;;;3.08;;
37831;SDS011;23671;38.090;-122.570;2022-12-18T05:03:38;5.32;;;3.22;;
37831;SDS011;23671;38.090;-122.570;2022-12-18T05:06:05;5.18;;;3.95;;
37831;SDS011;23671;38.090;-122.570;2022-12-18T05:08:33;3.92;;;2.90;;
37831;SDS011;23671;38.090;-122.570;2022-12-18T05:11:04;5.18;;;3.50;;
37831;SDS011;23671;38.090;-122.570;2022-12-18T05:13:33;4.45;;;3.05;;
37831;SDS011;23671;38.090;-122.570;2022-12-18T05:16:01;4.82;;;3.40;;
37831;SDS011;23671;38.090;-122.570;2022-12-18T05:18:28;5.32;;;3.30;;
37831;SDS011;23671;38.090;-122.570;2022-12-18T05:20:56;3.92;;;2.90;;
37831;SDS011;23671;38.090;-122.570;2022-12-18T05:23:23;5.85;;;3.53;;
37831;SDS011;23671;38.090;-122.570;2022-12-18T05:25:54;7.15;;;3.38;;
37831;SDS011;23671;38.090;-122.570;2022-12-18T05:28:23;5.50;;;3.50;;
37831;SDS011;23671;38.090;-122.570;2022-12-18T05:30:53;4.55;;;3.47;;
37831;SDS011;23671;38.090;-122.570;2022-12-18T05:33:22;3.95;;;3.17;;
37831;SDS011;23671;38.090;-122.570;2022-12-18T05:35:54;6.38;;;3.30;;
37831;SDS011;23671;38.090;-122.570;2022-12-18T05:38:23;6.78;;;3.75;;
37831;SDS011;23671;38.090;-122.570;2022-12-18T05:40:51;6.43;;;3.47;;
37831;SDS011;23671;38.090;-122.570;2022-12-18T05:43:19;5.20;;;3.35;;
37831;SDS011;23671;38.090;-122.570;2022-12-18T05:45:48;5.40;;;3.53;;
37831;SDS011;23671;38.090;-122.570;2022-12-18T05:48:16;4.50;;;3.20;;
37831;SDS011;23671;38.090;-122.570;2022-12-18T05:50:44;5.72;;;3.75;;
37831;SDS011;23671;38.090;-122.570;2022-12-18T05:53:13;4.37;;;2.87;;
37831;SDS011;23671;38.090;-122.570;2022-12-18T05:55:43;3.15;;;2.80;;
37831;SDS011;23671;38.090;-122.570;2022-12-18T05:58:12;4.22;;;2.90;;
37831;SDS011;23671;38.090;-122.570;2022-12-18T06:00:40;4.13;;;2.85;;
37831;SDS011;23671;38.090;-122.570;2022-12-18T06:03:09;4.97;;;3.13;;
37831;SDS011;23671;38.090;-122.570;2022-12-18T06:05:37;4.32;;;2.92;;
37831;SDS011;23671;38.090;-122.570;2022-12-18T06:08:06;4.25;;;2.85;;
37831;SDS011;23671;38.090;-122.570;2022-12-18T06:10:33;5.20;;;3.35;;
37831;SDS011;23671;38.090;-122.570;2022-12-18T06:13:00;4.85;;;3.40;;
37831;SDS011;23671;38.090;-122.570;2022-12-18T06:15:28;4.05;;;3.17;;
37831;SDS011;23671;38.090;-122.570;2022-12-18T06:17:55;5.88;;;3.45;;
37831;SDS011;23671;38.090;-122.570;2022-12-18T06:20:22;3.85;;;2.88;;
37831;SDS011;23671;38.090;-122.570;2022-12-18T06:22:49;5.90;;;3.10;;
37831;SDS011;23671;38.090;-122.570;2022-12-18T06:25:16;4.93;;;3.10;;
37831;SDS011;23671;38.090;-122.570;2022-12-18T06:27:43;4.18;;;3.00;;
37831;SDS011;23671;38.090;-122.570;2022-12-18T06:30:12;5.20;;;3.30;;
37831;SDS011;23671;38.090;-122.570;2022-12-18T06:32:39;6.47;;;4.60;;
37831;SDS011;23671;38.090;-122.570;2022-12-18T06:35:07;5.85;;;3.38;;
37831;SDS011;23671;38.090;-122.570;2022-12-18T06:37:34;6.10;;;3.67;;
37831;SDS011;23671;38.090;-122.570;2022-12-18T06:40:01;5.82;;;3.28;;
37831;SDS011;23671;38.090;-122.570;2022-12-18T06:42:28;5.38;;;3.65;;
37831;SDS011;23671;38.090;-122.570;2022-12-18T06:44:55;6.63;;;3.55;;
37831;SDS011;23671;38.090;-122.570;2022-12-18T06:47:22;5.97;;;3.60;;
37831;SDS011;23671;38.090;-122.570;2022-12-18T06:49:49;5.47;;;3.50;;
37831;SDS011;23671;38.090;-122.570;2022-12-18T06:52:16;4.85;;;3.33;;
37831;SDS011;23671;38.090;-122.570;2022-12-18T06:54:43;5.35;;;3.50;;
37831;SDS011;23671;38.090;-122.570;2022-12-18T06:57:10;5.15;;;3.80;;
37831;SDS011;23671;38.090;-122.570;2022-12-18T06:59:37;5.05;;;3.28;;
37831;SDS011;23671;38.090;-122.570;2022-12-18T07:02:04;8.45;;;3.72;;
37831;SDS011;23671;38.090;-122.570;2022-12-18T07:04:31;7.35;;;3.90;;
37831;SDS011;23671;38.090;-122.570;2022-12-18T07:06:58;5.40;;;3.45;;
37831;SDS011;23671;38.090;-122.570;2022-12-18T07:09:25;5.28;;;3.50;;
37831;SDS011;23671;38.090;-122.570;2022-12-18T07:11:52;6.50;;;3.83;;
37831;SDS011;23671;38.090;-122.570;2022-12-18T07:14:19;4.47;;;3.33;;
37831;SDS011;23671;38.090;-122.570;2022-12-18T07:16:46;7.38;;;3.90;;
37831;SDS011;23671;38.090;-122.570;2022-12-18T07:19:13;5.40;;;3.38;;
37831;SDS011;23671;38.090;-122.570;2022-12-18T07:21:40;6.82;;;3.88;;
37831;SDS011;23671;38.090;-122.570;2022-12-18T07:24:07;8.20;;;3.97;;
37831;SDS011;23671;38.090;-122.570;2022-12-18T07:26:34;6.63;;;3.90;;
37831;SDS011;23671;38.090;-122.570;2022-12-18T07:29:01;6.13;;;4.10;;
37831;SDS011;23671;38.090;-122.570;2022-12-18T07:31:28;6.57;;;3.95;;
37831;SDS011;23671;38.090;-122.570;2022-12-18T07:33:55;5.78;;;3.83;;
37831;SDS011;23671;38.090;-122.570;2022-12-18T07:36:22;7.68;;;4.18;;
37831;SDS011;23671;38.090;-122.570;2022-12-18T07:38:49;6.95;;;4.10;;
37831;SDS011;23671;38.090;-122.570;2022-12-18T07:41:18;7.55;;;4.30;;
37831;SDS011;23671;38.090;-122.570;2022-12-18T07:43:45;6.72;;;3.95;;
37831;SDS011;23671;38.090;-122.570;2022-12-18T07:46:13;6.03;;;3.95;;
37831;SDS011;23671;38.090;-122.570;2022-12-18T07:48:41;7.75;;;4.28;;
37831;SDS011;23671;38.090;-122.570;2022-12-18T07:51:09;7.78;;;4.18;;
37831;SDS011;23671;38.090;-122.570;2022-12-18T07:53:36;5.88;;;3.65;;
37831;SDS011;23671;38.090;-122.570;2022-12-18T07:56:10;7.15;;;4.13;;
37831;SDS011;23671;38.090;-122.570;2022-12-18T07:58:38;5.97;;;4.13;;
37831;SDS011;23671;38.090;-122.570;2022-12-18T08:01:09;5.28;;;3.40;;
37831;SDS011;23671;38.090;-122.570;2022-12-18T08:03:38;7.60;;;3.95;;
37831;SDS011;23671;38.090;-122.570;2022-12-18T08:06:06;6.65;;;4.07;;
37831;SDS011;23671;38.090;-122.570;2022-12-18T08:08:35;6.35;;;4.32;;
37831;SDS011;23671;38.090;-122.570;2022-12-18T08:11:02;7.53;;;3.83;;
37831;SDS011;23671;38.090;-122.570;2022-12-18T08:13:29;7.10;;;4.03;;
37831;SDS011;23671;38.090;-122.570;2022-12-18T08:16:00;5.80;;;3.83;;
37831;SDS011;23671;38.090;-122.570;2022-12-18T08:18:29;7.05;;;3.85;;
37831;SDS011;23671;38.090;-122.570;2022-12-18T08:21:12;5.70;;;3.70;;
37831;SDS011;23671;38.090;-122.570;2022-12-18T08:23:41;6.85;;;4.13;;
37831;SDS011;23671;38.090;-122.570;2022-12-18T08:26:09;7.43;;;3.80;;
37831;SDS011;23671;38.090;-122.570;2022-12-18T08:28:37;6.25;;;3.63;;
37831;SDS011;23671;38.090;-122.570;2022-12-18T08:31:05;5.43;;;3.92;;
37831;SDS011;23671;38.090;-122.570;2022-12-18T08:33:33;6.28;;;3.80;;
37831;SDS011;23671;38.090;-122.570;2022-12-18T08:36:01;8.05;;;4.53;;
37831;SDS011;23671;38.090;-122.570;2022-12-18T08:38:29;6.05;;;3.70;;
37831;SDS011;23671;38.090;-122.570;2022-12-18T08:41:00;6.40;;;3.80;;
37831;SDS011;23671;38.090;-122.570;2022-12-18T08:43:32;6.00;;;3.95;;
37831;SDS011;23671;38.090;-122.570;2022-12-18T08:46:18;5.93;;;3.55;;
37831;SDS011;23671;38.090;-122.570;2022-12-18T08:48:46;6.93;;;3.63;;
37831;SDS011;23671;38.090;-122.570;2022-12-18T08:51:15;6.00;;;3.40;;
37831;SDS011;23671;38.090;-122.570;2022-12-18T08:53:43;6.60;;;3.88;;
37831;SDS011;23671;38.090;-122.570;2022-12-18T08:56:10;5.32;;;3.60;;
37831;SDS011;23671;38.090;-122.570;2022-12-18T08:58:38;6.03;;;3.60;;
37831;SDS011;23671;38.090;-122.570;2022-12-18T09:01:06;5.85;;;4.00;;
37831;SDS011;23671;38.090;-122.570;2022-12-18T09:03:35;6.53;;;4.00;;
37831;SDS011;23671;38.090;-122.570;2022-12-18T09:06:03;7.18;;;3.55;;
37831;SDS011;23671;38.090;-122.570;2022-12-18T09:08:31;6.93;;;3.97;;
37831;SDS011;23671;38.090;-122.570;2022-12-18T09:10:59;7.53;;;3.97;;
37831;SDS011;23671;38.090;-122.570;2022-12-18T09:13:27;6.40;;;4.25;;
37831;SDS011;23671;38.090;-122.570;2022-12-18T09:15:54;6.38;;;4.00;;
37831;SDS011;23671;38.090;-122.570;2022-12-18T09:18:22;6.97;;;4.07;;
37831;SDS011;23671;38.090;-122.570;2022-12-18T09:20:50;6.97;;;3.92;;
37831;SDS011;23671;38.090;-122.570;2022-12-18T09:23:18;6.07;;;3.60;;
37831;SDS011;23671;38.090;-122.570;2022-12-18T09:25:45;6.53;;;4.00;;
37831;SDS011;23671;38.090;-122.570;2022-12-18T09:28:13;6.43;;;4.07;;
37831;SDS011;23671;38.090;-122.570;2022-12-18T09:30:43;6.68;;;4.22;;
37831;SDS011;23671;38.090;-122.570;2022-12-18T09:33:14;5.78;;;4.07;;
37831;SDS011;23671;38.090;-122.570;2022-12-18T09:35:42;7.03;;;3.97;;
37831;SDS011;23671;38.090;-122.570;2022-12-18T09:38:14;7.80;;;4.13;;
37831;SDS011;23671;38.090;-122.570;2022-12-18T09:43:14;6.63;;;3.87;;
37831;SDS011;23671;38.090;-122.570;2022-12-18T09:45:46;7.57;;;4.28;;
37831;SDS011;23671;38.090;-122.570;2022-12-18T09:48:25;8.68;;;4.70;;
37831;SDS011;23671;38.090;-122.570;2022-12-18T09:50:54;9.02;;;4.57;;
37831;SDS011;23671;38.090;-122.570;2022-12-18T09:53:29;9.48;;;3.97;;
37831;SDS011;23671;38.090;-122.570;2022-12-18T09:55:58;7.60;;;4.15;;
37831;SDS011;23671;38.090;-122.570;2022-12-18T09:58:34;8.00;;;4.40;;
37831;SDS011;23671;38.090;-122.570;2022-12-18T10:01:14;10.43;;;5.22;;
37831;SDS011;23671;38.090;-122.570;2022-12-18T10:03:48;9.68;;;4.85;;
37831;SDS011;23671;38.090;-122.570;2022-12-18T10:06:34;6.90;;;4.15;;
37831;SDS011;23671;38.090;-122.570;2022-12-18T10:09:24;7.40;;;4.07;;
37831;SDS011;23671;38.090;-122.570;2022-12-18T10:14:49;8.20;;;4.55;;
37831;SDS011;23671;38.090;-122.570;2022-12-18T10:17:20;7.93;;;4.13;;
37831;SDS011;23671;38.090;-122.570;2022-12-18T10:20:05;8.45;;;4.43;;
37831;SDS011;23671;38.090;-122.570;2022-12-18T10:25:21;7.88;;;4.25;;
37831;SDS011;23671;38.090;-122.570;2022-12-18T10:28:15;8.02;;;4.43;;
37831;SDS011;23671;38.090;-122.570;2022-12-18T10:30:44;8.30;;;4.20;;
37831;SDS011;23671;38.090;-122.570;2022-12-18T10:33:16;7.45;;;3.92;;
37831;SDS011;23671;38.090;-122.570;2022-12-18T10:35:45;7.47;;;4.45;;
37831;SDS011;23671;38.090;-122.570;2022-12-18T10:40:58;9.40;;;4.32;;
37831;SDS011;23671;38.090;-122.570;2022-12-18T10:43:32;7.30;;;4.30;;
37831;SDS011;23671;38.090;-122.570;2022-12-18T10:48:48;6.40;;;3.78;;
37831;SDS011;23671;38.090;-122.570;2022-12-18T10:53:54;7.63;;;4.32;;
37831;SDS011;23671;38.090;-122.570;2022-12-18T10:56:31;6.45;;;4.05;;
37831;SDS011;23671;38.090;-122.570;2022-12-18T10:59:02;8.68;;;4.22;;
37831;SDS011;23671;38.090;-122.570;2022-12-18T11:04:22;7.50;;;3.90;;
37831;SDS011;23671;38.090;-122.570;2022-12-18T11:07:01;8.90;;;4.18;;
37831;SDS011;23671;38.090;-122.570;2022-12-18T11:09:30;6.45;;;3.83;;
37831;SDS011;23671;38.090;-122.570;2022-12-18T11:11:59;6.68;;;3.85;;
37831;SDS011;23671;38.090;-122.570;2022-12-18T11:15:01;6.78;;;3.67;;
37831;SDS011;23671;38.090;-122.570;2022-12-18T11:17:29;6.57;;;3.90;;
37831;SDS011;23671;38.090;-122.570;2022-12-18T11:20:03;4.93;;;3.40;;
37831;SDS011;23671;38.090;-122.570;2022-12-18T11:22:35;6.82;;;3.65;;
37831;SDS011;23671;38.090;-122.570;2022-12-18T11:25:16;9.60;;;4.03;;
37831;SDS011;23671;38.090;-122.570;2022-12-18T11:27:52;5.22;;;3.33;;
37831;SDS011;23671;38.090;-122.570;2022-12-18T11:30:28;5.95;;;3.78;;
37831;SDS011;23671;38.090;-122.570;2022-12-18T11:38:28;6.90;;;3.47;;
37831;SDS011;23671;38.090;-122.570;2022-12-18T11:46:30;6.05;;;3.40;;
37831;SDS011;23671;38.090;-122.570;2022-12-18T11:52:16;5.75;;;3.40;;
37831;SDS011;23671;38.090;-122.570;2022-12-18T11:55:09;5.35;;;3.22;;
37831;SDS011;23671;38.090;-122.570;2022-12-18T12:00:19;6.47;;;3.27;;
37831;SDS011;23671;38.090;-122.570;2022-12-18T12:03:06;5.88;;;3.55;;
37831;SDS011;23671;38.090;-122.570;2022-12-18T12:06:10;5.10;;;3.17;;
37831;SDS011;23671;38.090;-122.570;2022-12-18T12:08:49;4.43;;;2.50;;
37831;SDS011;23671;38.090;-122.570;2022-12-18T12:11:47;8.38;;;3.40;;
37831;SDS011;23671;38.090;-122.570;2022-12-18T12:20:04;6.05;;;3.10;;
37831;SDS011;23671;38.090;-122.570;2022-12-18T12:22:58;6.85;;;2.83;;
37831;SDS011;23671;38.090;-122.570;2022-12-18T12:37:04;6.55;;;3.45;;
37831;SDS011;23671;38.090;-122.570;2022-12-18T12:39:39;4.35;;;3.00;;
37831;SDS011;23671;38.090;-122.570;2022-12-18T12:42:15;5.10;;;3.00;;
37831;SDS011;23671;38.090;-122.570;2022-12-18T12:47:42;5.45;;;3.05;;
37831;SDS011;23671;38.090;-122.570;2022-12-18T12:50:15;6.60;;;3.28;;
37831;SDS011;23671;38.090;-122.570;2022-12-18T12:52:50;5.45;;;3.13;;
37831;SDS011;23671;38.090;-122.570;2022-12-18T12:55:21;3.78;;;3.03;;
37831;SDS011;23671;38.090;-122.570;2022-12-18T13:00:53;4.32;;;3.00;;
37831;SDS011;23671;38.090;-122.570;2022-12-18T13:08:53;6.22;;;2.92;;
37831;SDS011;23671;38.090;-122.570;2022-12-18T13:14:32;5.40;;;3.08;;
37831;SDS011;23671;38.090;-122.570;2022-12-18T13:17:15;4.97;;;2.70;;
37831;SDS011;23671;38.090;-122.570;2022-12-18T13:19:52;3.70;;;2.60;;
37831;SDS011;23671;38.090;-122.570;2022-12-18T13:22:38;4.95;;;2.90;;
37831;SDS011;23671;38.090;-122.570;2022-12-18T13:28:12;4.70;;;3.05;;
37831;SDS011;23671;38.090;-122.570;2022-12-18T13:35:50;6.45;;;3.15;;
37831;SDS011;23671;38.090;-122.570;2022-12-18T13:41:00;4.80;;;2.78;;
37831;SDS011;23671;38.090;-122.570;2022-12-18T13:49:14;4.63;;;2.90;;
37831;SDS011;23671;38.090;-122.570;2022-12-18T13:51:43;5.57;;;2.65;;
37831;SDS011;23671;38.090;-122.570;2022-12-18T13:54:21;6.90;;;3.40;;
37831;SDS011;23671;38.090;-122.570;2022-12-18T13:56:50;5.20;;;3.08;;
37831;SDS011;23671;38.090;-122.570;2022-12-18T14:01:50;6.32;;;3.10;;
37831;SDS011;23671;38.090;-122.570;2022-12-18T14:06:52;5.40;;;3.10;;
37831;SDS011;23671;38.090;-122.570;2022-12-18T14:09:25;7.53;;;3.22;;
37831;SDS011;23671;38.090;-122.570;2022-12-18T14:11:57;5.47;;;3.08;;
37831;SDS011;23671;38.090;-122.570;2022-12-18T14:14:44;4.50;;;2.40;;
37831;SDS011;23671;38.090;-122.570;2022-12-18T14:17:13;6.55;;;3.70;;
37831;SDS011;23671;38.090;-122.570;2022-12-18T14:19:44;4.63;;;2.75;;
37831;SDS011;23671;38.090;-122.570;2022-12-18T14:22:18;5.15;;;2.75;;
37831;SDS011;23671;38.090;-122.570;2022-12-18T14:27:41;5.53;;;3.05;;
37831;SDS011;23671;38.090;-122.570;2022-12-18T14:30:30;7.60;;;3.38;;
37831;SDS011;23671;38.090;-122.570;2022-12-18T14:33:05;6.22;;;3.28;;
37831;SDS011;23671;38.090;-122.570;2022-12-18T14:35:52;6.68;;;3.50;;
37831;SDS011;23671;38.090;-122.570;2022-12-18T14:43:40;6.53;;;3.08;;
37831;SDS011;23671;38.090;-122.570;2022-12-18T14:48:56;5.35;;;2.95;;
37831;SDS011;23671;38.090;-122.570;2022-12-18T14:51:33;5.93;;;3.25;;
37831;SDS011;23671;38.090;-122.570;2022-12-18T14:54:02;5.53;;;2.75;;
37831;SDS011;23671;38.090;-122.570;2022-12-18T14:56:35;5.53;;;3.13;;
37831;SDS011;23671;38.090;-122.570;2022-12-18T14:59:15;7.43;;;3.20;;
37831;SDS011;23671;38.090;-122.570;2022-12-18T15:04:37;4.80;;;3.03;;
37831;SDS011;23671;38.090;-122.570;2022-12-18T15:12:04;6.07;;;3.30;;
37831;SDS011;23671;38.090;-122.570;2022-12-18T15:14:45;6.40;;;3.60;;
37831;SDS011;23671;38.090;-122.570;2022-12-18T15:17:20;5.60;;;3.13;;
37831;SDS011;23671;38.090;-122.570;2022-12-18T15:19:50;5.85;;;2.80;;
37831;SDS011;23671;38.090;-122.570;2022-12-18T15:24:57;5.07;;;2.97;;
37831;SDS011;23671;38.090;-122.570;2022-12-18T15:27:29;5.53;;;3.30;;
37831;SDS011;23671;38.090;-122.570;2022-12-18T15:32:34;6.38;;;3.08;;
37831;SDS011;23671;38.090;-122.570;2022-12-18T15:37:39;6.32;;;3.17;;
37831;SDS011;23671;38.090;-122.570;2022-12-18T15:40:07;7.47;;;3.20;;
37831;SDS011;23671;38.090;-122.570;2022-12-18T15:42:43;6.05;;;3.33;;
37831;SDS011;23671;38.090;-122.570;2022-12-18T15:45:29;6.88;;;3.30;;
37831;SDS011;23671;38.090;-122.570;2022-12-18T15:47:56;6.03;;;3.25;;
37831;SDS011;23671;38.090;-122.570;2022-12-18T15:50:24;6.95;;;3.65;;
37831;SDS011;23671;38.090;-122.570;2022-12-18T15:52:52;5.25;;;3.13;;
37831;SDS011;23671;38.090;-122.570;2022-12-18T15:55:21;6.03;;;3.17;;
37831;SDS011;23671;38.090;-122.570;2022-12-18T15:58:08;7.80;;;3.40;;
37831;SDS011;23671;38.090;-122.570;2022-12-18T16:00:38;5.85;;;2.92;;
37831;SDS011;23671;38.090;-122.570;2022-12-18T16:03:05;6.97;;;3.53;;
37831;SDS011;23671;38.090;-122.570;2022-12-18T16:05:34;5.75;;;3.38;;
37831;SDS011;23671;38.090;-122.570;2022-12-18T16:08:01;6.13;;;3.42;;
37831;SDS011;23671;38.090;-122.570;2022-12-18T16:10:28;5.82;;;3.35;;
37831;SDS011;23671;38.090;-122.570;2022-12-18T16:12:56;5.60;;;3.03;;
37831;SDS011;23671;38.090;-122.570;2022-12-18T16:15:23;5.25;;;3.03;;
37831;SDS011;23671;38.090;-122.570;2022-12-18T16:17:50;7.50;;;3.63;;
37831;SDS011;23671;38.090;-122.570;2022-12-18T16:20:18;6.40;;;3.25;;
37831;SDS011;23671;38.090;-122.570;2022-12-18T16:22:47;7.03;;;3.60;;
37831;SDS011;23671;38.090;-122.570;2022-12-18T16:25:22;6.45;;;3.20;;
37831;SDS011;23671;38.090;-122.570;2022-12-18T16:27:51;5.30;;;3.20;;
37831;SDS011;23671;38.090;-122.570;2022-12-18T16:30:26;7.38;;;4.25;;
37831;SDS011;23671;38.090;-122.570;2022-12-18T16:32:56;6.22;;;3.38;;
37831;SDS011;23671;38.090;-122.570;2022-12-18T16:35:24;6.65;;;3.50;;
37831;SDS011;23671;38.090;-122.570;2022-12-18T16:40:56;6.05;;;3.50;;
37831;SDS011;23671;38.090;-122.570;2022-12-18T16:43:42;6.25;;;3.58;;
37831;SDS011;23671;38.090;-122.570;2022-12-18T16:46:09;7.82;;;3.20;;
37831;SDS011;23671;38.090;-122.570;2022-12-18T16:48:36;5.63;;;3.58;;
37831;SDS011;23671;38.090;-122.570;2022-12-18T16:51:04;6.30;;;3.53;;
37831;SDS011;23671;38.090;-122.570;2022-12-18T16:53:32;5.45;;;3.60;;
37831;SDS011;23671;38.090;-122.570;2022-12-18T16:55:59;7.80;;;3.17;;
37831;SDS011;23671;38.090;-122.570;2022-12-18T16:58:26;4.97;;;3.10;;
37831;SDS011;23671;38.090;-122.570;2022-12-18T17:00:53;7.35;;;3.47;;
37831;SDS011;23671;38.090;-122.570;2022-12-18T17:03:20;8.18;;;3.53;;